KMDW/MDW METAR and TAF weather

Enter ICAO airport designator
Station Type Date Time Source
KMDW METAR 2022/07/03 14:53 UTC NOAA

KMDW 031453Z VRB03KT 10SM CLR 28/14 A3015 RMK AO2 SLP196 T02830144 51002


Station Type Date Time Source
KMDW Decoded METAR 2022/07/03 14:53 UTC NOAA

CHICAGO MIDWAY AIRPORT, IL, United States (KMDW) 41-47N 087-45W 188M
Jul 03, 2022 - 10:53 AM EDT / 2022.07.03 1453 UTC
Wind: Variable at 3 MPH (3 KT):0
Visibility: 10 mile(s):0
Sky conditions: clear
Temperature: 82.9 F (28.3 C)
Dew Point: 57.9 F (14.4 C)
Relative Humidity: 42%
Pressure (altimeter): 30.15 in. Hg (1020 hPa)
Pressure tendency: 0.01 inches (0.2 hPa) higher than three hours ago
ob: KMDW 031453Z VRB03KT 10SM CLR 28/14 A3015 RMK AO2 SLP196 T02830144 51002
cycle: 15

Station Type Date Time Source
KMDW TAF 2022/07/03 15:03 UTC NOAA

TAF
AMD KMDW 031500Z 0315/0418 05004KT P6SM SKC
FM031900 07010KT P6SM FEW060 FEW300
FM040100 12006KT P6SM FEW300
FM041400 20010KT P6SM SCT100 BKN250

Example: see airport list